Nearby METAR Reports

 

KBUF - Buffalo/Cheektow, New York, USA
Distance from station: 0 0mi, 0km
Updated: 07/13/2020 3:54am
Mostly cloudy
Mostly cloudy
 Wind from WNW
Wind: WNW 7 mph , 11 km/h
Temperature: 70°F , 21°C
Dew Point: 61°F , 16°C
Humidity: 73%
Barometer: 29.80 inHg , 1009.1 hPa
Clouds: Mostly cloudy
Visibility: 10 miles , 16 km
Cloud details: Mostly cloudy 2500 ft
Mostly cloudy 3500 ft
2020/07/13 07:54 KBUF 130754Z 29006KT 10SM BKN025 BKN035 21/16 A2980 RMK AO2 SLP088 T02060161 $
KIAG - Niagara Falls, New York, USA
Distance from station: NW 16mi, 26km
Updated: 07/13/2020 3:53am
Mostly cloudy
Mostly cloudy
 Wind from W
Wind: W 8 mph , 13 km/h
Temperature: 63°F , 17°C
Dew Point: 59°F , 15°C
Humidity: 88%
Barometer: 29.80 inHg , 1009.1 hPa
Clouds: Mostly cloudy
Visibility: 10 miles , 16 km
Cloud details: Mostly cloudy 3000 ft
2020/07/13 07:53 KIAG 130753Z AUTO 27007KT 10SM BKN030 17/15 A2980 RMK AO2 SLP086 T01720150
 
CWPC - Port Colborne(Au, Ontario, Canada
Distance from station: W 27mi, 43km
Updated: 07/13/2020 4:00am

 Wind from WNW
Wind: WNW 12 mph , 19 km/h
Temperature: 63°F , 17°C
Dew Point: 57°F , 14°C
Humidity: 83%
2020/07/13 08:00 CWPC 130800Z AUTO 30010KT 17/14 RMK AO1 SLP096 T01710139 58001
CYSN - St. Catharines A, Ontario, Canada
Distance from station: NW 29mi, 46km
Updated: 07/12/2020 9:00pm
NOT Current
Overcast
Overcast
 Wind from N
Wind: N 3 mph , 6 km/h
Temperature: 73°F , 23°C
Dew Point: 68°F , 20°C
Humidity: 83%
Barometer: 29.75 inHg , 1007.5 hPa
Clouds: Overcast
Visibility: 15 miles , 24 km
Cloud details: Mostly cloudy 3500 ft
Mostly cloudy 5500 ft
Overcast 14000 ft
2020/07/13 01:00 CYSN 130100Z 36003KT 15SM BKN035 BKN055 OVC140 23/20 A2975 RMK SC5SC2AC1 LAST STFD OBS/NEXT 131100 UTC SLP075 DENSITY ALT 1500FT
 
CWWZ - Port Weller (mar, Ontario, Canada
Distance from station: NW 33mi, 53km
Updated: 07/13/2020 4:00am

 Wind from W
Wind: W 13 mph , 20 km/h
Temperature: 68°F , 20°C
Dew Point: 66°F , 19°C
Humidity: 94%
2020/07/13 08:00 CWWZ 130800Z AUTO 28011KT 20/19 RMK AO1 SLP087 T02010187 50000
CXVN - Vineland (au8), Ontario, Canada
Distance from station: WNW 38mi, 61km
Updated: 07/13/2020 4:00am

 Wind from WSW
Wind: WSW 7 mph , 11 km/h
Temperature: 63°F , 17°C
Dew Point: 57°F , 14°C
Humidity: 83%
2020/07/13 08:00 CXVN 130800Z AUTO 24006KT 17/14 RMK AO1 SLP088 T01710141 50000
 
KDKK - Dunkirk, New York, USA
Distance from station: SW 41mi, 66km
Updated: 07/13/2020 3:53am
Clear
Clear
 Wind from WSW
Wind: WSW 6 mph , 9 km/h
Temperature: 66°F , 19°C
Dew Point: 57°F , 14°C
Humidity: 73%
Barometer: 29.83 inHg , 1010.2 hPa
Clouds: Clear
Visibility: 10 miles , 16 km
2020/07/13 07:53 KDKK 130753Z AUTO 25005KT 10SM CLR 19/14 A2983 RMK AO2 SLP097 T01940139 $
KOLE - Olean, New York, USA
Distance from station: SSE 52mi, 83km
Updated: 07/13/2020 4:35am
Clear
Clear
 Wind from calm
Wind: Calm
Temperature: 57°F , 14°C
Dew Point: 57°F , 14°C
Humidity: 100%
Barometer: 29.87 inHg , 1011.5 hPa
Clouds: Clear
Visibility: 10 miles , 16 km
2020/07/13 08:35 KOLE 130835Z AUTO 00000KT 10SM CLR 14/14 A2987 RMK AO2
 
KROC - Rochester, New York, USA
Distance from station: ENE 55mi, 88km
Updated: 07/13/2020 3:54am
Few Clouds
Few Clouds
 Wind from W
Wind: W 5 mph , 7 km/h
Temperature: 64°F , 18°C
Dew Point: 63°F , 17°C
Humidity: 94%
Barometer: 29.79 inHg , 1008.8 hPa
Clouds: Few Clouds
Visibility: 10 miles , 16 km
Cloud details: Few Clouds 5500 ft
Few Clouds 15000 ft
2020/07/13 07:54 KROC 130754Z 26004KT 10SM FEW055 FEW150 18/17 A2979 RMK AO2 SLP086 T01830167
KDSV - Dansville, New York, USA
Distance from station: ESE 57mi, 92km
Updated: 07/13/2020 3:54am
Partly cloudy
Partly cloudy
 Wind from SE
Wind: SE 5 mph , 7 km/h
Temperature: 64°F , 18°C
Dew Point: 61°F , 16°C
Humidity: 88%
Barometer: 29.82 inHg , 1009.8 hPa
Clouds: Partly cloudy
Visibility: 10 miles , 16 km
Cloud details: Few Clouds 2800 ft
Partly cloudy 4600 ft
2020/07/13 07:54 KDSV 130754Z AUTO 13004KT 10SM FEW028 SCT046 18/16 A2982 RMK AO2 SLP101 T01780161
 
CWWB - Burlington Piers, Ontario, Canada
Distance from station: WNW 59mi, 94km
Updated: 07/13/2020 4:00am

 Wind from WSW
Wind: WSW 6 mph , 9 km/h
Temperature: 63°F , 17°C
Dew Point: 61°F , 16°C
Humidity: 94%
2020/07/13 08:00 CWWB 130800Z AUTO 25005KT 17/16 RMK AO1 SLP092 T01740155 58003
CYTZ - Toronto Il Vor, Ontario, Canada
Distance from station: NW 59mi, 95km
Updated: 07/13/2020 4:00am
Overcast
Overcast
 Wind from NW
Wind: NW 8 mph , 13 km/h
Temperature: 68°F , 20°C
Dew Point: 61°F , 16°C
Humidity: 78%
Barometer: 29.78 inHg , 1008.5 hPa
Clouds: Overcast
Visibility: 9 miles , 14 km
Cloud details: Overcast 7500 ft
2020/07/13 08:00 CYTZ 130800Z AUTO 32007KT 9SM OVC075 20/16 A2978 RMK SLP085 DENSITY ALT 1000FT
 
CXTO - Toronto City, Ontario, Canada
Distance from station: NW 61mi, 98km
Updated: 07/13/2020 4:00am

 
Temperature: 68°F , 20°C
Dew Point: 57°F , 14°C
Humidity: 69%
2020/07/13 08:00 CXTO 130800Z AUTO 20/14 RMK AO1 SLP091 T01960140 58003
KJHW - Jamestown, New York, USA
Distance from station: SSW 62mi, 99km
Updated: 07/13/2020 3:56am
Clear
Clear
 Wind from SW
Wind: SW 6 mph , 9 km/h
Temperature: 61°F , 16°C
Dew Point: 57°F , 14°C
Humidity: 88%
Barometer: 29.87 inHg , 1011.5 hPa
Clouds: Clear
Visibility: 10 miles , 16 km
2020/07/13 07:56 KJHW 130756Z AUTO 23005KT 10SM CLR 16/14 A2987 RMK AO2 SLP113 T01560139
 
CYHM - Hamilton Airport, Ontario, Canada
Distance from station: WNW 63mi, 101km
Updated: 07/13/2020 4:00am
Mostly cloudy
Mostly cloudy
 Wind from W
Wind: W 6 mph , 9 km/h
Temperature: 61°F , 16°C
Dew Point: 59°F , 15°C
Humidity: 94%
Barometer: 29.82 inHg , 1009.8 hPa
Clouds: Mostly cloudy
Visibility: 15 miles , 24 km
Cloud details: Mostly cloudy 3800 ft
Mostly cloudy 5700 ft
2020/07/13 08:00 CYHM 130800Z 28005KT 15SM BKN038 BKN057 16/15 A2982 RMK SC5SC1 SLP096 DENSITY ALT 1300FT
CXHM - Hamilton Rbg Cs, Ontario, Canada
Distance from station: WNW 64mi, 102km
Updated: 07/13/2020 4:00am

 Wind from W
Wind: W 1 mph , 2 km/h
Temperature: 59°F , 15°C
Dew Point: 57°F , 14°C
Humidity: 94%
2020/07/13 08:00 CXHM 130800Z AUTO 26001KT 15/14 RMK AO1 SLP091 T01510139 58003
 
CYYZ - Toronto/Pearson, Ontario, Canada
Distance from station: NW 67mi, 108km
Updated: 07/13/2020 4:00am
Partly cloudy
Partly cloudy
 Wind from NW
Wind: NW 8 mph , 13 km/h
Temperature: 64°F , 18°C
Dew Point: 59°F , 15°C
Humidity: 83%
Barometer: 29.79 inHg , 1008.8 hPa
Clouds: Partly cloudy
Visibility: 15 miles , 24 km
Cloud details: Few Clouds 5200 ft
Partly cloudy 7300 ft
2020/07/13 08:00 CYYZ 130800Z 31007KT 15SM FEW052 SCT073 18/15 A2979 RMK SC1AC3 SLP088 DENSITY ALT 1300FT
CYOO - Oshawa, Ontario, Canada
Distance from station: N 68mi, 110km
Updated: 07/13/2020 4:00am
Overcast
Overcast
 Wind from NNW
Wind: NNW 7 mph , 11 km/h
Temperature: 66°F , 19°C
Dew Point: 64°F , 18°C
Humidity: 94%
Barometer: 29.77 inHg , 1008.1 hPa
Clouds: Overcast
Visibility: 9 miles , 14 km
Cloud details: Few Clouds 7000 ft
Overcast 8600 ft
2020/07/13 08:00 CYOO 130800Z AUTO 33006KT 9SM FEW070 OVC086 19/18 A2977 RMK SLP083 DENSITY ALT 1200FT
 
KELZ - Wellsville, New York, USA
Distance from station: SE 69mi, 111km
Updated: 07/13/2020 4:32am
Mostly cloudy
Mostly cloudy
 Wind from W
Wind: W 8 mph , 13 km/h
Temperature: 59°F , 15°C
Dew Point: 57°F , 14°C
Humidity: 94%
Barometer: 29.88 inHg , 1011.9 hPa
Clouds: Mostly cloudy
Visibility: 10 miles , 16 km
Cloud details: Mostly cloudy 600 ft
2020/07/13 08:32 KELZ 130832Z AUTO 27007KT 10SM BKN006 15/14 A2988 RMK AO2 T01500144 $
CWNC - Cobourg (mars), Ontario, Canada
Distance from station: NNE 76mi, 122km
Updated: 07/13/2020 4:00am

 Wind from N
Wind: N 3 mph , 6 km/h
Temperature: 64°F , 18°C
Dew Point: 63°F , 17°C
Humidity: 94%
2020/07/13 08:00 CWNC 130800Z AUTO 35003KT 18/17 RMK AO1 SLP078 T01750168 58003